Time;durP1;ratioP1;P1;durP2;ratioP2;P2;SDS_P1;SDS_P2;PMS_P1;PMS_P2;Temp;Humidity;BMP_temperature;BMP_pressure;BME280_temperature;BME280_humidity;BME280_pressure;Samples;Min_cycle;Max_cycle;Signal;HPM_P1;HPM_P2
2022/07/06 00:01:44;;;;;;;;;;;;;;;17.46;47.43;101496.94;4969159;28;7197;-76
2022/07/06 00:04:10;;;;;;;;;;;;;;;17.44;48.13;101501.19;4973434;28;7103;-77
2022/07/06 00:06:36;;;;;;;;;;;;;;;17.41;48.04;101492.41;4968062;28;7265;-77
2022/07/06 00:09:04;;;;;;;;;;;;;;;17.39;47.91;101497.53;4928819;28;6986;-76
2022/07/06 00:11:30;;;;;;;;;;;;;;;17.35;47.63;101490.47;4943663;28;7076;-77
2022/07/06 00:13:56;;;;;;;;;;;;;;;17.30;48.15;101498.06;4958254;28;6915;-76
2022/07/06 00:16:22;;;;;;;;;;;;;;;17.25;48.26;101486.63;4969804;28;7337;-76
2022/07/06 00:18:48;;;;;;;;;;;;;;;17.20;48.01;101480.41;4972458;28;6957;-77
2022/07/06 00:21:13;;;;;;;;;;;;;;;17.13;48.21;101479.28;4945817;28;6991;-76
2022/07/06 00:23:39;;;;;;;;;;;;;;;17.10;48.27;101483.50;4934767;28;7050;-77
2022/07/06 00:26:05;;;;;;;;;;;;;;;17.03;48.45;101483.25;4955819;28;7920;-77
2022/07/06 00:28:31;;;;;;;;;;;;;;;16.98;48.35;101489.91;4960053;28;6796;-77
2022/07/06 00:30:57;;;;;;;;;;;;;;;16.91;48.90;101487.91;4954971;28;6962;-76
2022/07/06 00:33:23;;;;;;;;;;;;;;;16.87;49.01;101481.72;4963812;28;7106;-77
2022/07/06 00:35:49;;;;;;;;;;;;;;;16.82;48.94;101483.25;4943082;28;7059;-77
2022/07/06 00:38:15;;;;;;;;;;;;;;;16.76;48.84;101481.28;4956005;28;7024;-77
2022/07/06 00:40:41;;;;;;;;;;;;;;;16.73;48.91;101482.88;4956946;28;6812;-76
2022/07/06 00:43:06;;;;;;;;;;;;;;;16.70;49.11;101482.75;4951876;28;7111;-76
2022/07/06 00:45:33;;;;;;;;;;;;;;;16.64;48.95;101478.22;4954812;28;7239;-76
2022/07/06 00:47:59;;;;;;;;;;;;;;;16.61;48.74;101484.16;4947270;28;6789;-77
2022/07/06 00:50:25;;;;;;;;;;;;;;;16.59;49.18;101490.06;4946769;28;6796;-76
2022/07/06 00:53:04;;;;;;;;;;;;;;;16.57;48.94;101494.31;4972972;28;7040;-76
2022/07/06 00:55:35;;;;;;;;;;;;;;;16.52;49.37;101487.25;4972450;28;6984;-77
2022/07/06 00:58:04;;;;;;;;;;;;;;;16.51;49.21;101482.91;4958332;28;7334;-77
2022/07/06 01:00:31;;;;;;;;;;;;;;;16.50;49.41;101486.28;4957741;28;7037;-76
2022/07/06 01:02:57;;;;;;;;;;;;;;;16.49;49.66;101479.34;4953721;28;7066;-76
2022/07/06 01:05:23;;;;;;;;;;;;;;;16.46;49.58;101484.41;4948182;28;7137;-76
2022/07/06 01:07:52;;;;;;;;;;;;;;;16.45;49.44;101487.81;4957433;28;7034;-76
2022/07/06 01:10:20;;;;;;;;;;;;;;;16.43;49.16;101493.75;4948937;28;6809;-76
2022/07/06 01:12:48;;;;;;;;;;;;;;;16.40;49.22;101491.91;4961833;28;6976;-76
2022/07/06 01:15:21;;;;;;;;;;;;;;;16.39;49.56;101492.72;4948210;28;7199;-76
2022/07/06 01:17:47;;;;;;;;;;;;;;;16.38;49.90;101496.16;4979109;28;6815;-77
2022/07/06 01:20:21;;;;;;;;;;;;;;;16.36;49.93;101492.63;4951789;28;6952;-76
2022/07/06 01:22:49;;;;;;;;;;;;;;;16.34;49.89;101489.94;4979312;28;8310;-76
2022/07/06 01:25:15;;;;;;;;;;;;;;;16.32;50.15;101489.00;4960911;28;7507;-76
2022/07/06 01:27:42;;;;;;;;;;;;;;;16.32;50.18;101488.13;4948620;28;6908;-77
2022/07/06 01:30:12;;;;;;;;;;;;;;;16.30;50.30;101489.75;4964768;28;7054;-77
2022/07/06 01:32:39;;;;;;;;;;;;;;;16.30;50.38;101494.94;4964218;28;7291;-76
2022/07/06 01:35:11;;;;;;;;;;;;;;;16.29;50.78;101485.41;4950756;28;7214;-76
2022/07/06 01:37:37;;;;;;;;;;;;;;;16.27;50.75;101487.06;4934364;28;6994;-76
2022/07/06 01:40:07;;;;;;;;;;;;;;;16.26;51.02;101485.28;4977789;28;7178;-77
2022/07/06 01:42:33;;;;;;;;;;;;;;;16.26;50.42;101486.16;4942402;28;8315;-77
2022/07/06 01:44:59;;;;;;;;;;;;;;;16.26;50.65;101491.34;4965537;28;6796;-76
2022/07/06 01:47:25;;;;;;;;;;;;;;;16.26;50.42;101483.56;4966032;28;6948;-77
2022/07/06 01:49:51;;;;;;;;;;;;;;;16.22;50.61;101485.19;4955431;28;8256;-77
2022/07/06 01:52:18;;;;;;;;;;;;;;;16.22;50.55;101487.75;4973265;28;7117;-76
2022/07/06 01:54:43;;;;;;;;;;;;;;;16.19;50.69;101479.84;4959872;28;7267;-77
2022/07/06 01:57:09;;;;;;;;;;;;;;;16.18;50.78;101477.22;4949066;28;6764;-76
2022/07/06 01:59:35;;;;;;;;;;;;;;;16.14;50.90;101481.38;4955575;28;7278;-76
2022/07/06 02:02:01;;;;;;;;;;;;;;;16.12;51.29;101477.81;4974771;28;6954;-76
2022/07/06 02:04:26;;;;;;;;;;;;;;;16.13;50.63;101478.72;4977056;28;6783;-76
2022/07/06 02:06:52;;;;;;;;;;;;;;;16.11;51.22;101483.81;4960712;28;6776;-76
2022/07/06 02:09:18;;;;;;;;;;;;;;;16.08;50.51;101482.00;4962592;28;6772;-76
2022/07/06 02:11:44;;;;;;;;;;;;;;;16.06;50.84;101491.38;4973331;28;6780;-76
2022/07/06 02:14:10;;;;;;;;;;;;;;;16.03;50.55;101492.94;4952660;28;8308;-76
2022/07/06 02:16:36;;;;;;;;;;;;;;;15.98;50.98;101492.75;4956895;28;6993;-76
2022/07/06 02:19:02;;;;;;;;;;;;;;;15.96;51.06;101491.78;4976378;28;6775;-76
2022/07/06 02:21:28;;;;;;;;;;;;;;;15.93;50.94;101495.16;4958897;28;6970;-76
2022/07/06 02:23:53;;;;;;;;;;;;;;;15.88;51.54;101482.78;4937160;28;6971;-76
2022/07/06 02:26:19;;;;;;;;;;;;;;;15.85;51.30;101485.25;4952852;28;7014;-76
2022/07/06 02:28:47;;;;;;;;;;;;;;;15.80;51.73;101479.88;4933806;28;6945;-76
2022/07/06 02:31:13;;;;;;;;;;;;;;;15.77;52.02;101478.03;4962456;28;7109;-76
2022/07/06 02:33:40;;;;;;;;;;;;;;;15.76;52.02;101475.41;4966463;28;6800;-76
2022/07/06 02:36:06;;;;;;;;;;;;;;;15.76;51.65;101472.81;4942109;28;6983;-76
2022/07/06 02:38:31;;;;;;;;;;;;;;;15.73;51.85;101481.31;4951149;28;7159;-76
2022/07/06 02:40:57;;;;;;;;;;;;;;;15.71;51.76;101474.31;4962657;28;6780;-76
2022/07/06 02:43:23;;;;;;;;;;;;;;;15.67;51.66;101474.19;4944366;28;7278;-76
2022/07/06 02:45:48;;;;;;;;;;;;;;;15.64;51.71;101473.16;4973254;28;6772;-76
2022/07/06 02:48:14;;;;;;;;;;;;;;;15.61;52.05;101479.06;4964487;28;7067;-76
2022/07/06 02:50:39;;;;;;;;;;;;;;;15.57;52.17;101473.69;4941525;28;7160;-76
2022/07/06 02:53:05;;;;;;;;;;;;;;;15.50;51.68;101472.53;4972996;28;6776;-76
2022/07/06 02:55:31;;;;;;;;;;;;;;;15.46;51.78;101483.56;4959925;28;6780;-76
2022/07/06 02:57:57;;;;;;;;;;;;;;;15.40;52.64;101479.88;4964676;28;7172;-74
2022/07/06 03:00:22;;;;;;;;;;;;;;;15.32;52.14;101488.97;4963331;28;6775;-74
2022/07/06 03:02:48;;;;;;;;;;;;;;;15.28;52.50;101489.66;4950668;28;6772;-74
2022/07/06 03:05:14;;;;;;;;;;;;;;;15.24;52.86;101498.94;4953435;28;6894;-74
2022/07/06 03:07:39;;;;;;;;;;;;;;;15.20;53.00;101488.41;4973686;28;6772;-74
2022/07/06 03:10:05;;;;;;;;;;;;;;;15.18;52.83;101492.63;4980779;28;7266;-74
2022/07/06 03:12:31;;;;;;;;;;;;;;;15.14;53.29;101495.03;4944156;28;8105;-74
2022/07/06 03:14:56;;;;;;;;;;;;;;;15.12;52.88;101495.81;4951760;28;6860;-74
2022/07/06 03:17:22;;;;;;;;;;;;;;;15.10;53.18;101503.47;4970054;28;7020;-74
2022/07/06 03:19:48;;;;;;;;;;;;;;;15.05;53.34;101491.16;4979103;28;6804;-74
2022/07/06 03:22:13;;;;;;;;;;;;;;;15.03;53.35;101498.81;4949948;28;7012;-74
2022/07/06 03:24:39;;;;;;;;;;;;;;;14.98;53.58;101502.91;4973674;28;7212;-74
2022/07/06 03:27:05;;;;;;;;;;;;;;;14.95;53.36;101501.03;4956465;28;6792;-74
2022/07/06 03:29:31;;;;;;;;;;;;;;;14.93;53.96;101510.41;4951049;28;6784;-74
2022/07/06 03:31:56;;;;;;;;;;;;;;;14.92;53.62;101510.34;4928588;28;6964;-74
2022/07/06 03:34:22;;;;;;;;;;;;;;;14.90;54.13;101509.38;4974532;28;6768;-74
2022/07/06 03:36:48;;;;;;;;;;;;;;;14.89;54.08;101505.03;4963008;28;6977;-74
2022/07/06 03:39:13;;;;;;;;;;;;;;;14.91;53.89;101503.41;4961260;28;7860;-74
2022/07/06 03:41:39;;;;;;;;;;;;;;;14.93;54.61;101513.00;4979066;28;7379;-74
2022/07/06 03:44:05;;;;;;;;;;;;;;;14.96;54.55;101505.41;4977282;28;7229;-72
2022/07/06 03:46:30;;;;;;;;;;;;;;;14.98;54.22;101503.75;4972077;28;6840;-72
2022/07/06 03:48:56;;;;;;;;;;;;;;;15.02;54.03;101504.78;4936821;28;6953;-73
2022/07/06 03:51:21;;;;;;;;;;;;;;;15.05;53.91;101506.66;4967722;28;8399;-73
2022/07/06 03:53:47;;;;;;;;;;;;;;;15.07;53.91;101500.75;4949384;28;6775;-73
2022/07/06 03:56:28;;;;;;;;;;;;;;;15.11;54.82;101496.59;4971138;28;8038;-73
2022/07/06 03:58:55;;;;;;;;;;;;;;;15.14;54.55;101505.38;4972572;28;7804;-73
2022/07/06 04:01:21;;;;;;;;;;;;;;;15.19;54.27;101509.88;4968763;28;6796;-73
2022/07/06 04:03:46;;;;;;;;;;;;;;;15.20;54.11;101504.75;4957748;28;6977;-73
2022/07/06 04:06:12;;;;;;;;;;;;;;;15.23;54.26;101520.44;4971949;28;7227;-73
2022/07/06 04:08:38;;;;;;;;;;;;;;;15.27;54.47;101521.47;4930552;28;7720;-73
2022/07/06 04:11:03;;;;;;;;;;;;;;;15.29;54.88;101522.41;4977855;28;7105;-72
2022/07/06 04:13:29;;;;;;;;;;;;;;;15.32;54.67;101511.34;4975236;28;7180;-72
2022/07/06 04:15:54;;;;;;;;;;;;;;;15.38;54.93;101521.94;4960647;28;6772;-74
2022/07/06 04:18:20;;;;;;;;;;;;;;;15.40;54.13;101516.03;4948247;28;6780;-74
2022/07/06 04:20:46;;;;;;;;;;;;;;;15.49;54.93;101522.44;4975324;28;6772;-74
2022/07/06 04:23:12;;;;;;;;;;;;;;;15.62;55.27;101517.00;4969316;28;8203;-74
2022/07/06 04:25:37;;;;;;;;;;;;;;;15.89;56.48;101515.59;4945443;28;6768;-76
2022/07/06 04:28:03;;;;;;;;;;;;;;;16.25;56.61;101520.59;4958524;28;7136;-75
2022/07/06 04:30:29;;;;;;;;;;;;;;;16.69;57.07;101523.28;4928176;28;7161;-75
2022/07/06 04:32:55;;;;;;;;;;;;;;;17.13;56.30;101525.03;4962685;28;8738;-75
2022/07/06 04:35:21;;;;;;;;;;;;;;;17.59;56.60;101524.19;4977450;28;6999;-75
2022/07/06 04:37:47;;;;;;;;;;;;;;;18.06;55.37;101525.91;4945153;28;6840;-75
2022/07/06 04:40:14;;;;;;;;;;;;;;;18.49;54.96;101507.41;4973392;28;6950;-75
2022/07/06 04:42:40;;;;;;;;;;;;;;;18.91;54.12;101512.22;4977402;28;7217;-75
2022/07/06 04:45:06;;;;;;;;;;;;;;;19.33;53.62;101510.91;4962261;28;6960;-74
2022/07/06 04:47:32;;;;;;;;;;;;;;;19.73;52.87;101511.19;4964655;28;7281;-76
2022/07/06 04:49:58;;;;;;;;;;;;;;;20.09;51.65;101510.47;4978225;28;6792;-75
2022/07/06 04:52:24;;;;;;;;;;;;;;;20.38;51.07;101502.53;4962321;28;6984;-75
2022/07/06 04:54:50;;;;;;;;;;;;;;;20.68;50.26;101505.81;4945708;28;6957;-75
2022/07/06 04:57:15;;;;;;;;;;;;;;;20.94;49.69;101509.06;4961377;28;6779;-75
2022/07/06 04:59:41;;;;;;;;;;;;;;;21.16;48.65;101513.88;4969625;28;7230;-75
2022/07/06 05:02:07;;;;;;;;;;;;;;;21.33;48.04;101509.00;4973807;28;6768;-75
2022/07/06 05:04:32;;;;;;;;;;;;;;;21.50;47.20;101512.00;4961786;28;6932;-75
2022/07/06 05:06:58;;;;;;;;;;;;;;;21.64;47.13;101512.28;4950818;28;6941;-75
2022/07/06 05:09:24;;;;;;;;;;;;;;;21.82;47.01;101517.00;4962841;28;8009;-76
2022/07/06 05:11:50;;;;;;;;;;;;;;;22.01;46.45;101502.53;4950979;28;6985;-75
2022/07/06 05:14:15;;;;;;;;;;;;;;;22.17;45.98;101508.03;4977292;28;7015;-75
2022/07/06 05:16:41;;;;;;;;;;;;;;;22.29;45.70;101497.81;4960343;28;7345;-75
2022/07/06 05:19:07;;;;;;;;;;;;;;;22.37;44.88;101499.66;4963081;28;6784;-75
2022/07/06 05:21:32;;;;;;;;;;;;;;;22.47;44.27;101506.81;4975959;28;6795;-75
2022/07/06 05:23:58;;;;;;;;;;;;;;;22.54;43.63;101505.19;4962218;28;7217;-75
2022/07/06 05:26:23;;;;;;;;;;;;;;;22.56;43.41;101506.13;4967578;28;6990;-75
2022/07/06 05:28:49;;;;;;;;;;;;;;;22.50;43.59;101511.25;4966078;28;7067;-75
2022/07/06 05:31:15;;;;;;;;;;;;;;;22.50;44.23;101506.88;4961928;28;7412;-75
2022/07/06 05:33:41;;;;;;;;;;;;;;;22.66;44.61;101507.13;4968232;28;7220;-75
2022/07/06 05:36:07;;;;;;;;;;;;;;;22.89;44.14;101504.84;4973943;28;6964;-75
2022/07/06 05:38:33;;;;;;;;;;;;;;;23.12;44.07;101510.41;4961167;28;6840;-75
2022/07/06 05:40:58;;;;;;;;;;;;;;;23.34;43.72;101508.09;4950342;28;6784;-74
2022/07/06 05:43:24;;;;;;;;;;;;;;;23.51;43.51;101505.69;4979657;28;6772;-74
2022/07/06 05:45:49;;;;;;;;;;;;;;;23.69;43.51;101510.28;4978093;28;8098;-74
2022/07/06 05:51:00;;;;;;;;;;;;;;;24.22;41.42;101512.56;4958575;28;6808;-73
2022/07/06 05:53:25;;;;;;;;;;;;;;;24.27;41.25;101516.97;4964365;28;7430;-74
2022/07/06 05:55:52;;;;;;;;;;;;;;;24.32;40.71;101510.88;4950890;28;6924;-74
2022/07/06 05:58:17;;;;;;;;;;;;;;;24.31;39.77;101509.13;4948293;28;6990;-74
2022/07/06 06:00:43;;;;;;;;;;;;;;;24.20;39.26;101512.53;4977332;28;7278;-74
2022/07/06 06:03:09;;;;;;;;;;;;;;;23.97;38.55;101521.03;4978876;28;6899;-74
2022/07/06 06:05:34;;;;;;;;;;;;;;;23.70;38.38;101521.59;4963526;28;6756;-74
2022/07/06 06:08:00;;;;;;;;;;;;;;;23.43;39.06;101523.06;4971744;28;6931;-74
2022/07/06 06:10:27;;;;;;;;;;;;;;;23.15;39.51;101523.53;4965128;28;6800;-74
2022/07/06 06:12:53;;;;;;;;;;;;;;;22.87;38.97;101528.34;4964210;28;7047;-74
2022/07/06 06:15:19;;;;;;;;;;;;;;;22.61;39.14;101525.34;4943015;28;7158;-74
2022/07/06 06:17:44;;;;;;;;;;;;;;;22.39;39.48;101524.06;4965664;28;7290;-74
2022/07/06 06:20:14;;;;;;;;;;;;;;;22.20;39.80;101534.19;4948232;28;7144;-74
2022/07/06 06:22:58;;;;;;;;;;;;;;;22.01;40.17;101533.84;4976445;28;6800;-74
2022/07/06 06:25:38;;;;;;;;;;;;;;;21.85;40.01;101531.84;4972647;28;6811;-74
2022/07/06 06:28:07;;;;;;;;;;;;;;;21.70;40.75;101521.97;4957537;28;7004;-74
2022/07/06 06:30:33;;;;;;;;;;;;;;;21.60;40.72;101536.53;4973385;28;6792;-73
2022/07/06 06:33:16;;;;;;;;;;;;;;;21.52;41.06;101528.53;4935114;28;7221;-74
2022/07/06 06:35:45;;;;;;;;;;;;;;;21.45;41.45;101527.53;4953490;28;6808;-74
2022/07/06 06:38:12;;;;;;;;;;;;;;;21.37;41.40;101529.97;4938357;28;6800;-74
2022/07/06 06:40:37;;;;;;;;;;;;;;;21.35;41.63;101530.81;4941830;28;6792;-74
2022/07/06 06:43:03;;;;;;;;;;;;;;;21.31;41.61;101537.69;4959456;28;6784;-74
2022/07/06 06:45:29;;;;;;;;;;;;;;;21.27;41.60;101553.22;4957012;28;6867;-74
2022/07/06 06:47:55;;;;;;;;;;;;;;;21.24;41.91;101548.81;4948903;28;6987;-74
2022/07/06 06:50:22;;;;;;;;;;;;;;;21.25;41.97;101550.56;4948353;28;6950;-74
2022/07/06 06:52:48;;;;;;;;;;;;;;;21.26;42.29;101548.84;4942964;28;6856;-74
2022/07/06 06:55:14;;;;;;;;;;;;;;;21.30;42.72;101553.28;4946728;28;6971;-74
2022/07/06 06:57:40;;;;;;;;;;;;;;;21.37;42.37;101549.97;4976333;28;6796;-74
2022/07/06 07:00:06;;;;;;;;;;;;;;;21.46;42.81;101544.94;4973768;28;6848;-74
2022/07/06 07:02:32;;;;;;;;;;;;;;;21.68;42.77;101555.84;4962494;28;7015;-74
2022/07/06 07:04:58;;;;;;;;;;;;;;;21.92;42.39;101554.56;4958185;28;6842;-74
2022/07/06 07:07:23;;;;;;;;;;;;;;;22.16;42.08;101559.41;4958973;28;7343;-74
2022/07/06 07:09:49;;;;;;;;;;;;;;;22.38;41.19;101548.44;4974059;28;6764;-74
2022/07/06 07:12:16;;;;;;;;;;;;;;;22.56;41.04;101551.38;4965912;28;7267;-74
2022/07/06 07:14:43;;;;;;;;;;;;;;;22.81;40.74;101541.34;4939915;28;7275;-74
2022/07/06 07:17:11;;;;;;;;;;;;;;;23.17;41.17;101541.84;4959014;28;7223;-74
2022/07/06 07:19:37;;;;;;;;;;;;;;;23.61;40.65;101543.31;4933845;28;7092;-75
2022/07/06 07:22:04;;;;;;;;;;;;;;;24.11;40.45;101538.66;4952435;28;6880;-74
2022/07/06 07:24:29;;;;;;;;;;;;;;;24.50;38.85;101539.00;4958148;28;6792;-74
2022/07/06 07:26:55;;;;;;;;;;;;;;;24.78;38.34;101542.72;4943854;28;6788;-74
2022/07/06 07:29:21;;;;;;;;;;;;;;;25.00;38.02;101544.63;4951344;28;6856;-74
2022/07/06 07:31:47;;;;;;;;;;;;;;;25.10;36.63;101542.03;4946114;28;7088;-75
2022/07/06 07:34:12;;;;;;;;;;;;;;;25.06;36.78;101539.38;4958651;28;7767;-74
2022/07/06 07:36:38;;;;;;;;;;;;;;;24.98;35.99;101544.59;4961507;28;7018;-75
2022/07/06 07:39:04;;;;;;;;;;;;;;;24.92;35.88;101544.59;4969325;28;6847;-74
2022/07/06 07:41:30;;;;;;;;;;;;;;;25.03;36.36;101542.91;4953130;28;7402;-74
2022/07/06 07:43:56;;;;;;;;;;;;;;;25.37;35.93;101540.44;4963798;28;7166;-74
2022/07/06 07:46:22;;;;;;;;;;;;;;;25.59;35.04;101544.94;4932625;28;6943;-74
2022/07/06 07:48:47;;;;;;;;;;;;;;;25.57;35.02;101539.66;4975916;28;6989;-74
2022/07/06 07:51:13;;;;;;;;;;;;;;;25.54;34.62;101539.66;4941956;28;6796;-74
2022/07/06 07:53:39;;;;;;;;;;;;;;;25.55;34.15;101535.31;4977315;28;7928;-74
2022/07/06 07:56:05;;;;;;;;;;;;;;;25.58;34.67;101541.41;4977577;28;6927;-74
2022/07/06 07:58:30;;;;;;;;;;;;;;;25.58;33.74;101536.16;4942641;28;6927;-74
2022/07/06 08:00:56;;;;;;;;;;;;;;;25.54;34.08;101544.03;4976800;28;7237;-74
2022/07/06 08:03:22;;;;;;;;;;;;;;;25.41;33.60;101541.31;4940707;28;7038;-74
2022/07/06 08:05:48;;;;;;;;;;;;;;;25.29;33.31;101539.50;4973136;28;6799;-74
2022/07/06 08:08:14;;;;;;;;;;;;;;;25.20;33.39;101534.22;4945693;28;6943;-74
2022/07/06 08:10:40;;;;;;;;;;;;;;;25.07;33.97;101528.91;4971254;28;6823;-74
2022/07/06 08:13:07;;;;;;;;;;;;;;;25.10;33.82;101523.69;4966835;28;7090;-74
2022/07/06 08:15:34;;;;;;;;;;;;;;;25.34;33.47;101529.03;4955982;28;6966;-74
2022/07/06 08:18:00;;;;;;;;;;;;;;;25.68;32.63;101521.34;4964374;28;6788;-74
2022/07/06 08:20:25;;;;;;;;;;;;;;;25.78;32.34;101530.09;4987458;28;6995;-74
2022/07/06 08:22:51;;;;;;;;;;;;;;;25.64;32.11;101525.69;4978954;28;7238;-74
2022/07/06 08:25:17;;;;;;;;;;;;;;;25.39;32.15;101524.72;4962106;28;6772;-74
2022/07/06 08:27:43;;;;;;;;;;;;;;;25.30;32.84;101528.19;4963556;28;6768;-74
2022/07/06 08:30:10;;;;;;;;;;;;;;;25.46;32.96;101539.63;4948749;28;6800;-74
2022/07/06 08:32:43;;;;;;;;;;;;;;;25.61;32.51;101536.19;4975698;28;7228;-74
2022/07/06 08:35:10;;;;;;;;;;;;;;;25.67;32.52;101530.09;4966292;28;7266;-74
2022/07/06 08:37:36;;;;;;;;;;;;;;;25.83;31.76;101528.38;4960776;28;7043;-73
2022/07/06 08:40:03;;;;;;;;;;;;;;;26.19;32.12;101520.53;4962381;28;7133;-74
2022/07/06 08:42:34;;;;;;;;;;;;;;;26.66;31.66;101521.44;4975225;28;7019;-74
2022/07/06 08:45:04;;;;;;;;;;;;;;;27.20;31.08;101525.72;4968816;28;7170;-74
2022/07/06 08:47:31;;;;;;;;;;;;;;;27.62;30.38;101517.66;4947574;28;6864;-74
2022/07/06 08:49:57;;;;;;;;;;;;;;;28.09;29.57;101515.59;4962428;28;6824;-74
2022/07/06 08:52:24;;;;;;;;;;;;;;;28.51;29.47;101511.78;4962000;28;6796;-74
2022/07/06 08:54:50;;;;;;;;;;;;;;;28.90;28.83;101522.84;4951258;28;6792;-74
2022/07/06 08:57:17;;;;;;;;;;;;;;;29.33;28.33;101523.19;4952201;28;7318;-74
2022/07/06 08:59:43;;;;;;;;;;;;;;;29.32;27.65;101518.81;4979618;28;7474;-74
2022/07/06 09:02:13;;;;;;;;;;;;;;;29.17;27.74;101523.41;4963961;28;6760;-75
2022/07/06 09:04:43;;;;;;;;;;;;;;;28.81;27.42;101513.22;4960121;28;6796;-75
2022/07/06 09:07:09;;;;;;;;;;;;;;;28.33;28.39;101521.59;4977552;28;6788;-74
2022/07/06 09:09:38;;;;;;;;;;;;;;;28.17;28.76;101523.44;4963801;28;6828;-75
2022/07/06 09:12:09;;;;;;;;;;;;;;;28.49;28.36;101517.06;4946238;28;7003;-75
2022/07/06 09:14:36;;;;;;;;;;;;;;;28.83;27.75;101516.75;4975161;28;7211;-75
2022/07/06 09:17:05;;;;;;;;;;;;;;;28.83;27.49;101510.59;4975145;28;6820;-74
2022/07/06 09:19:33;;;;;;;;;;;;;;;28.68;26.88;101509.84;4952054;28;6964;-74
2022/07/06 09:22:01;;;;;;;;;;;;;;;28.42;27.41;101510.97;4947922;28;7045;-74
2022/07/06 09:24:27;;;;;;;;;;;;;;;28.25;27.01;101508.50;4929332;28;7176;-75
2022/07/06 09:26:57;;;;;;;;;;;;;;;28.03;27.24;101510.38;4949286;28;6860;-74
2022/07/06 09:29:32;;;;;;;;;;;;;;;27.75;27.24;101507.94;4951269;28;6876;-74
2022/07/06 09:32:05;;;;;;;;;;;;;;;27.43;27.97;101512.47;4958662;28;6846;-74
2022/07/06 09:34:47;;;;;;;;;;;;;;;27.10;28.30;101510.84;4976949;28;7266;-75
2022/07/06 09:37:14;;;;;;;;;;;;;;;27.01;28.57;101514.38;4950669;28;6991;-74
2022/07/06 09:39:40;;;;;;;;;;;;;;;27.31;28.84;101513.38;4967507;28;6828;-74
2022/07/06 09:42:10;;;;;;;;;;;;;;;27.80;28.11;101519.28;4949718;28;6797;-75
2022/07/06 09:44:40;;;;;;;;;;;;;;;28.27;27.27;101506.72;4936360;28;6995;-74
2022/07/06 09:47:09;;;;;;;;;;;;;;;28.75;26.94;101512.41;4933891;28;8132;-74
2022/07/06 09:49:36;;;;;;;;;;;;;;;29.15;26.08;101506.69;4964882;28;6975;-75
2022/07/06 09:52:06;;;;;;;;;;;;;;;29.48;26.33;101509.84;4956678;28;6972;-74
2022/07/06 09:54:34;;;;;;;;;;;;;;;29.75;25.55;101513.00;4947755;28;7022;-74
2022/07/06 09:57:01;;;;;;;;;;;;;;;30.12;26.50;101508.03;4958381;28;6800;-74
2022/07/06 09:59:29;;;;;;;;;;;;;;;30.48;26.32;101513.59;4948680;28;7861;-74
2022/07/06 10:01:59;;;;;;;;;;;;;;;30.61;25.68;101509.84;4947000;28;7794;-74
2022/07/06 10:04:27;;;;;;;;;;;;;;;30.59;25.37;101508.97;4958555;28;7939;-75
2022/07/06 10:06:55;;;;;;;;;;;;;;;30.31;25.73;101511.25;4939742;28;1111731;-75
2022/07/06 10:09:24;;;;;;;;;;;;;;;29.88;25.55;101518.94;4976574;28;9462;-74
2022/07/06 10:12:00;;;;;;;;;;;;;;;29.40;25.89;101511.69;4951006;28;6808;-74
2022/07/06 10:14:33;;;;;;;;;;;;;;;29.01;25.46;101514.78;4971854;28;7261;-74
2022/07/06 10:17:01;;;;;;;;;;;;;;;28.69;26.11;101511.59;4944990;28;6792;-75
2022/07/06 10:19:30;;;;;;;;;;;;;;;28.64;25.86;101505.47;4949222;28;7028;-74
2022/07/06 10:22:01;;;;;;;;;;;;;;;28.99;26.82;101511.28;4961265;28;7166;-74
2022/07/06 10:24:28;;;;;;;;;;;;;;;29.33;26.07;101510.00;4965528;28;7150;-74
2022/07/06 10:26:55;;;;;;;;;;;;;;;29.31;25.53;101509.16;4962793;28;6800;-74
2022/07/06 10:29:21;;;;;;;;;;;;;;;29.04;26.27;101511.25;4946490;28;7958;-74
2022/07/06 10:31:48;;;;;;;;;;;;;;;28.76;26.44;101503.59;4947548;28;7843;-74
2022/07/06 10:34:18;;;;;;;;;;;;;;;28.61;27.42;101502.88;4948978;28;6875;-74
2022/07/06 10:36:51;;;;;;;;;;;;;;;28.55;26.99;101509.09;4974835;28;7184;-73
2022/07/06 10:42:51;;;;;;;;;;;;;;;29.25;26.28;101495.13;4959708;28;6800;-73
2022/07/06 10:45:45;;;;;;;;;;;;;;;29.18;25.72;101498.75;4947374;28;6804;-73
2022/07/06 10:48:11;;;;;;;;;;;;;;;29.02;26.04;101500.72;4956838;28;7129;-73
2022/07/06 10:50:50;;;;;;;;;;;;;;;28.99;26.25;101510.44;4977713;28;7207;-73
2022/07/06 10:53:24;;;;;;;;;;;;;;;28.96;25.91;101513.97;4934091;28;6988;-73
2022/07/06 10:55:54;;;;;;;;;;;;;;;28.65;25.75;101498.47;4963501;28;7286;-73
2022/07/06 10:58:45;;;;;;;;;;;;;;;28.33;25.87;101502.25;4961115;28;7180;-73
2022/07/06 11:01:12;;;;;;;;;;;;;;;28.12;26.17;101506.78;4956815;28;6792;-73
2022/07/06 11:03:50;;;;;;;;;;;;;;;28.02;26.51;101500.72;4962442;28;6788;-73
2022/07/06 11:06:25;;;;;;;;;;;;;;;28.08;27.07;101497.19;4975442;28;6875;-73
2022/07/06 11:08:55;;;;;;;;;;;;;;;28.22;27.19;101502.38;4947350;28;7160;-73
2022/07/06 11:11:31;;;;;;;;;;;;;;;28.51;27.09;101493.31;4960336;28;7228;-73
2022/07/06 11:14:20;;;;;;;;;;;;;;;28.96;26.78;101501.63;4950883;28;6792;-73
2022/07/06 11:16:49;;;;;;;;;;;;;;;29.34;26.39;101499.44;4948594;28;6852;-73
2022/07/06 11:19:22;;;;;;;;;;;;;;;29.42;25.26;101498.47;4976681;28;6837;-74
2022/07/06 11:21:56;;;;;;;;;;;;;;;29.27;25.50;101500.41;4973106;28;8163;-73
2022/07/06 11:24:34;;;;;;;;;;;;;;;29.04;25.14;101492.75;4963116;28;6811;-73
2022/07/06 11:27:01;;;;;;;;;;;;;;;28.85;25.35;101498.25;4942460;28;6800;-73
2022/07/06 11:29:29;;;;;;;;;;;;;;;28.68;25.61;101491.38;4947050;28;7069;-73
2022/07/06 11:32:00;;;;;;;;;;;;;;;28.58;26.34;101487.06;4972718;28;6816;-73
2022/07/06 11:34:32;;;;;;;;;;;;;;;28.54;26.36;101494.16;4941786;28;6888;-73
2022/07/06 11:37:00;;;;;;;;;;;;;;;28.59;26.36;101485.31;4958953;28;7200;-73
2022/07/06 11:39:31;;;;;;;;;;;;;;;28.69;27.01;101487.84;4949238;28;6788;-73
2022/07/06 11:41:58;;;;;;;;;;;;;;;28.85;26.97;101497.41;4948014;28;7007;-73
2022/07/06 11:44:24;;;;;;;;;;;;;;;28.96;26.27;101496.38;4974880;28;7260;-73
2022/07/06 11:46:50;;;;;;;;;;;;;;;28.94;26.22;101484.97;4943174;28;6776;-74
2022/07/06 11:49:18;;;;;;;;;;;;;;;28.91;26.44;101495.56;4941364;28;6997;-74
2022/07/06 11:51:45;;;;;;;;;;;;;;;28.88;25.67;101498.25;4941554;28;6808;-73
2022/07/06 11:54:20;;;;;;;;;;;;;;;28.84;25.96;101493.88;4949250;28;7309;-74
2022/07/06 11:56:58;;;;;;;;;;;;;;;28.86;25.58;101494.72;4924784;28;7082;-74
2022/07/06 11:59:30;;;;;;;;;;;;;;;28.90;25.86;101493.81;4945152;28;6956;-74
2022/07/06 12:02:16;;;;;;;;;;;;;;;29.03;26.41;101488.38;4938764;28;6884;-75
2022/07/06 12:04:45;;;;;;;;;;;;;;;29.10;25.50;101477.72;4941775;28;7307;-74
2022/07/06 12:07:16;;;;;;;;;;;;;;;29.03;25.58;101480.47;4960256;28;6808;-73
2022/07/06 12:09:46;;;;;;;;;;;;;;;28.93;25.39;101477.94;4943839;28;7008;-73
2022/07/06 12:12:13;;;;;;;;;;;;;;;28.93;26.74;101480.56;4945877;28;7229;-73
2022/07/06 12:14:41;;;;;;;;;;;;;;;29.00;25.75;101470.81;4947736;28;7020;-74
2022/07/06 12:17:10;;;;;;;;;;;;;;;29.16;26.51;101476.78;4962304;28;7164;-73
2022/07/06 12:19:37;;;;;;;;;;;;;;;29.47;26.26;101467.59;4947749;28;6812;-73
2022/07/06 12:22:05;;;;;;;;;;;;;;;29.84;26.26;101458.25;4958680;28;6859;-73
2022/07/06 12:24:34;;;;;;;;;;;;;;;30.09;25.65;101457.88;4977656;28;6808;-73
2022/07/06 12:27:16;;;;;;;;;;;;;;;30.20;24.79;101450.63;4974188;28;6958;-74
2022/07/06 12:29:42;;;;;;;;;;;;;;;30.19;24.67;101448.88;4953191;28;7720;-74
2022/07/06 12:32:18;;;;;;;;;;;;;;;30.10;24.68;101446.41;4952157;28;6973;-73
2022/07/06 12:34:45;;;;;;;;;;;;;;;30.10;25.45;101446.41;4938736;28;6828;-73
2022/07/06 12:37:12;;;;;;;;;;;;;;;30.17;25.30;101435.69;4946255;28;6800;-73
2022/07/06 12:39:47;;;;;;;;;;;;;;;30.19;25.53;101433.91;4954884;28;7198;-73
2022/07/06 12:42:17;;;;;;;;;;;;;;;30.29;25.70;101431.09;4973736;28;6985;-74
2022/07/06 12:44:51;;;;;;;;;;;;;;;30.40;25.01;101425.59;4943811;28;7307;-74
2022/07/06 12:47:23;;;;;;;;;;;;;;;30.44;25.17;101437.88;4960363;28;6808;-74
2022/07/06 12:50:09;;;;;;;;;;;;;;;30.42;24.64;101424.66;4971404;28;6872;-74
2022/07/06 12:52:36;;;;;;;;;;;;;;;30.56;25.68;101428.81;4945795;28;6860;-74
2022/07/06 12:55:03;;;;;;;;;;;;;;;30.76;25.53;101423.16;4959713;28;6801;-74